Time;durP1;ratioP1;P1;durP2;ratioP2;P2;SDS_P1;SDS_P2;PMS_P1;PMS_P2;Temp;Humidity;BMP_temperature;BMP_pressure;BME280_temperature;BME280_humidity;BME280_pressure;Samples;Min_cycle;Max_cycle;Signal;HPM_P1;HPM_P2
2022/11/29 00:01:25;;;;;;;;;;;;;;;;;;4991707;28;1955;-44
2022/11/29 00:03:53;;;;;;;;;;;;;;;;;;4991471;28;1910;-45
2022/11/29 00:06:21;;;;;;;;;;;;;;;;;;4991760;28;2078;-44
2022/11/29 00:08:52;;;;;;;;;;;;;;;;;;4991746;28;2040;-43
2022/11/29 00:14:08;;;;;;;;;;;;;;;;;;4991512;28;2153;-46
2022/11/29 00:16:36;;;;;;;;;;;;;;;;;;4991603;28;2053;-45
2022/11/29 00:19:05;;;;;;;;;;;;;;;;;;5005126;28;1940;-45
2022/11/29 00:21:32;;;;;;;;;;;;;;;;;;5010915;28;2331;-45
2022/11/29 00:24:00;;;;;;;;;;;;;;;;;;5010907;28;1993;-47
2022/11/29 00:26:28;;;;;;;;;;;;;;;;;;5011845;28;2193;-44
2022/11/29 00:28:57;;;;;;;;;;;;;;;;;;5011675;28;2063;-47
2022/11/29 00:31:26;;;;;;;;;;;;;;;;;;5011518;28;2119;-46
2022/11/29 00:33:53;;;;;;;;;;;;;;;;;;5011748;28;1882;-44
2022/11/29 00:36:23;;;;;;;;;;;;;;;;;;5011626;28;1944;-43
2022/11/29 00:38:51;;;;;;;;;;;;;;;;;;5026675;28;2083;-45
2022/11/29 00:41:18;;;;;;;;;;;;;;;;;;5011524;28;1914;-44
2022/11/29 00:43:45;;;;;;;;;;;;;;;;;;5011316;28;1971;-44
2022/11/29 00:46:13;;;;;;;;;;;;;;;;;;5011600;28;2182;-45
2022/11/29 00:48:41;;;;;;;;;;;;;;;;;;5011570;28;2025;-44
2022/11/29 00:51:08;;;;;;;;;;;;;;;;;;5011797;28;1799;-43
2022/11/29 00:53:36;;;;;;;;;;;;;;;;;;5010478;28;1927;-44
2022/11/29 00:56:04;;;;;;;;;;;;;;;;;;5011383;28;2008;-44
2022/11/29 00:58:32;;;;;;;;;;;;;;;;;;5026524;28;1942;-47
2022/11/29 01:00:59;;;;;;;;;;;;;;;;;;5011138;28;1995;-46
2022/11/29 01:03:26;;;;;;;;;;;;;;;;;;5026272;28;2024;-44
2022/11/29 01:06:01;;;;;;;;;;;;;;;;;;5026243;28;1997;-47
2022/11/29 01:08:28;;;;;;;;;;;;;;;;;;5010992;28;2104;-44
2022/11/29 01:11:04;;;;;;;;;;;;;;;;;;5011261;28;1823;-45
2022/11/29 01:13:32;;;;;;;;;;;;;;;;;;5011052;28;2019;-44
2022/11/29 01:15:59;;;;;;;;;;;;;;;;;;5011109;28;2068;-45
2022/11/29 01:18:26;;;;;;;;;;;;;;;;;;5002601;28;2013;-47
2022/11/29 01:20:58;;;;;;;;;;;;;;;;;;5006283;28;2039;-44
2022/11/29 01:23:29;;;;;;;;;;;;;;;;;;4991123;28;2012;-46
2022/11/29 01:25:57;;;;;;;;;;;;;;;;;;4991527;28;2185;-44
2022/11/29 01:28:25;;;;;;;;;;;;;;;;;;4991427;28;2431;-45
2022/11/29 01:30:53;;;;;;;;;;;;;;;;;;4991487;28;1869;-45
2022/11/29 01:33:20;;;;;;;;;;;;;;;;;;4991323;28;1990;-45
2022/11/29 01:35:52;;;;;;;;;;;;;;;;;;4991557;28;2202;-46
2022/11/29 01:38:21;;;;;;;;;;;;;;;;;;4991342;28;1986;-44
2022/11/29 01:40:58;;;;;;;;;;;;;;;;;;4990195;28;2104;-46
2022/11/29 01:43:27;;;;;;;;;;;;;;;;;;4991415;28;1977;-44
2022/11/29 01:45:54;;;;;;;;;;;;;;;;;;4991086;28;2105;-45
2022/11/29 01:48:25;;;;;;;;;;;;;;;;;;4991262;28;1748;-45
2022/11/29 01:50:56;;;;;;;;;;;;;;;;;;4991090;28;1996;-46
2022/11/29 01:53:23;;;;;;;;;;;;;;;;;;4991408;28;2005;-44
2022/11/29 01:55:52;;;;;;;;;;;;;;;;;;4991394;28;2150;-46
2022/11/29 01:58:19;;;;;;;;;;;;;;;;;;4991120;28;1799;-44
2022/11/29 02:00:48;;;;;;;;;;;;;;;;;;4991258;28;2102;-46
2022/11/29 02:03:16;;;;;;;;;;;;;;;;;;4991034;28;1841;-43
2022/11/29 02:05:48;;;;;;;;;;;;;;;;;;4994035;28;1923;-43
2022/11/29 02:08:19;;;;;;;;;;;;;;;;;;5009568;28;1873;-43
2022/11/29 02:11:04;;;;;;;;;;;;;;;;;;4994678;28;2101;-45
2022/11/29 02:13:35;;;;;;;;;;;;;;;;;;4994711;28;2169;-47
2022/11/29 02:16:05;;;;;;;;;;;;;;;;;;4994636;28;1769;-43
2022/11/29 02:18:39;;;;;;;;;;;;;;;;;;5003824;28;1956;-45
2022/11/29 02:21:15;;;;;;;;;;;;;;;;;;5013953;28;1905;-44
2022/11/29 02:24:00;;;;;;;;;;;;;;;;;;5027236;28;2560;-43
2022/11/29 02:26:36;;;;;;;;;;;;;;;;;;4994187;28;1949;-46
2022/11/29 02:29:06;;;;;;;;;;;;;;;;;;4994221;28;1887;-45
2022/11/29 02:31:54;;;;;;;;;;;;;;;;;;4994163;28;2141;-44
2022/11/29 02:34:49;;;;;;;;;;;;;;;;;;4994287;28;1835;-45
2022/11/29 02:37:28;;;;;;;;;;;;;;;;;;4993978;28;2183;-46
2022/11/29 02:40:01;;;;;;;;;;;;;;;;;;4994057;28;2044;-40
2022/11/29 02:42:49;;;;;;;;;;;;;;;;;;5013575;28;2098;-47
2022/11/29 02:45:33;;;;;;;;;;;;;;;;;;5009318;28;1918;-46
2022/11/29 02:48:19;;;;;;;;;;;;;;;;;;4993892;28;1952;-44
2022/11/29 02:50:46;;;;;;;;;;;;;;;;;;4993844;28;1849;-45
2022/11/29 02:53:17;;;;;;;;;;;;;;;;;;5008750;28;2250;-46
2022/11/29 02:56:07;;;;;;;;;;;;;;;;;;4994011;28;1976;-46
2022/11/29 02:58:44;;;;;;;;;;;;;;;;;;4993903;28;2027;-46
2022/11/29 03:01:35;;;;;;;;;;;;;;;;;;4993725;28;1909;-46
2022/11/29 03:04:06;;;;;;;;;;;;;;;;;;4993644;28;1891;-45
2022/11/29 03:06:38;;;;;;;;;;;;;;;;;;4993387;28;1847;-44
2022/11/29 03:09:14;;;;;;;;;;;;;;;;;;4993509;28;1744;-45
2022/11/29 03:11:55;;;;;;;;;;;;;;;;;;4993597;28;2105;-43
2022/11/29 03:14:22;;;;;;;;;;;;;;;;;;4993364;28;2101;-45
2022/11/29 03:17:11;;;;;;;;;;;;;;;;;;4992588;28;2242;-44
2022/11/29 03:19:50;;;;;;;;;;;;;;;;;;5011216;28;2005;-46
2022/11/29 03:22:36;;;;;;;;;;;;;;;;;;5012659;28;2001;-44
2022/11/29 03:25:03;;;;;;;;;;;;;;;;;;5027851;28;2053;-46
2022/11/29 03:28:08;;;;;;;;;;;;;;;;;;5012781;28;1853;-45
2022/11/29 03:30:37;;;;;;;;;;;;;;;;;;4990870;28;2025;-43
2022/11/29 03:33:18;;;;;;;;;;;;;;;;;;4990730;28;2096;-46
2022/11/29 03:35:49;;;;;;;;;;;;;;;;;;5003613;28;2066;-44
2022/11/29 03:38:51;;;;;;;;;;;;;;;;;;5012490;28;1986;-44
2022/11/29 03:41:21;;;;;;;;;;;;;;;;;;4989321;28;1899;-45
2022/11/29 03:44:03;;;;;;;;;;;;;;;;;;4989241;28;1851;-46
2022/11/29 03:46:35;;;;;;;;;;;;;;;;;;5007878;28;2329;-44
2022/11/29 03:49:07;;;;;;;;;;;;;;;;;;4992724;28;1313;-47
2022/11/29 03:51:57;;;;;;;;;;;;;;;;;;4992767;28;2071;-45
2022/11/29 03:54:27;;;;;;;;;;;;;;;;;;4992069;28;1827;-43
2022/11/29 03:56:54;;;;;;;;;;;;;;;;;;4992786;28;1976;-47
2022/11/29 03:59:21;;;;;;;;;;;;;;;;;;4992455;28;1964;-44
2022/11/29 04:02:01;;;;;;;;;;;;;;;;;;4992618;28;2092;-45
2022/11/29 04:04:37;;;;;;;;;;;;;;;;;;4992392;28;2121;-44
2022/11/29 04:07:18;;;;;;;;;;;;;;;;;;4992572;28;2111;-46
2022/11/29 04:10:00;;;;;;;;;;;;;;;;;;5007390;28;2070;-43
2022/11/29 04:12:37;;;;;;;;;;;;;;;;;;4992443;28;1964;-46
2022/11/29 04:15:23;;;;;;;;;;;;;;;;;;5007484;28;2004;-45
2022/11/29 04:17:50;;;;;;;;;;;;;;;;;;4995736;28;2051;-45
2022/11/29 04:20:36;;;;;;;;;;;;;;;;;;5011929;28;2094;-48
2022/11/29 04:23:06;;;;;;;;;;;;;;;;;;5011661;28;1976;-43
2022/11/29 04:25:33;;;;;;;;;;;;;;;;;;5006744;28;2014;-46
2022/11/29 04:28:20;;;;;;;;;;;;;;;;;;4992032;28;2023;-44
2022/11/29 04:30:48;;;;;;;;;;;;;;;;;;4991823;28;2172;-45
2022/11/29 04:33:35;;;;;;;;;;;;;;;;;;4992021;28;1888;-45
2022/11/29 04:36:02;;;;;;;;;;;;;;;;;;4991907;28;1991;-46
2022/11/29 04:38:47;;;;;;;;;;;;;;;;;;4992018;28;1932;-45
2022/11/29 04:41:14;;;;;;;;;;;;;;;;;;4992022;28;1971;-46
2022/11/29 04:43:52;;;;;;;;;;;;;;;;;;4992307;28;1884;-43
2022/11/29 04:46:38;;;;;;;;;;;;;;;;;;4992127;28;2015;-46
2022/11/29 04:49:23;;;;;;;;;;;;;;;;;;4991814;28;1809;-46
2022/11/29 04:51:50;;;;;;;;;;;;;;;;;;4992121;28;1959;-47
2022/11/29 04:54:23;;;;;;;;;;;;;;;;;;4991973;28;2061;-44
2022/11/29 04:56:52;;;;;;;;;;;;;;;;;;4992010;28;1989;-44
2022/11/29 04:59:24;;;;;;;;;;;;;;;;;;4991816;28;1804;-46
2022/11/29 05:02:06;;;;;;;;;;;;;;;;;;4991662;28;2109;-44
2022/11/29 05:04:33;;;;;;;;;;;;;;;;;;4991841;28;1903;-46
2022/11/29 05:07:02;;;;;;;;;;;;;;;;;;4991800;28;1992;-48
2022/11/29 05:09:29;;;;;;;;;;;;;;;;;;4991780;28;1909;-46
2022/11/29 05:12:01;;;;;;;;;;;;;;;;;;4991898;28;1907;-44
2022/11/29 05:14:28;;;;;;;;;;;;;;;;;;4991702;28;1911;-44
2022/11/29 05:17:14;;;;;;;;;;;;;;;;;;4991643;28;1970;-44
2022/11/29 05:19:41;;;;;;;;;;;;;;;;;;5010412;28;2109;-45
2022/11/29 05:22:27;;;;;;;;;;;;;;;;;;5011375;28;2140;-50
2022/11/29 05:25:21;;;;;;;;;;;;;;;;;;5010987;28;1912;-46
2022/11/29 05:28:06;;;;;;;;;;;;;;;;;;5003042;28;2023;-49
2022/11/29 05:30:54;;;;;;;;;;;;;;;;;;5011200;28;1956;-45
2022/11/29 05:33:21;;;;;;;;;;;;;;;;;;5011036;28;1978;-44
2022/11/29 05:35:52;;;;;;;;;;;;;;;;;;5026211;28;1943;-44
2022/11/29 05:38:42;;;;;;;;;;;;;;;;;;5011048;28;1961;-45
2022/11/29 05:41:28;;;;;;;;;;;;;;;;;;5014731;28;1603;-44
2022/11/29 05:44:14;;;;;;;;;;;;;;;;;;5014918;28;2064;-45
2022/11/29 05:46:59;;;;;;;;;;;;;;;;;;5014783;28;2117;-47
2022/11/29 05:49:40;;;;;;;;;;;;;;;;;;5014524;28;1887;-44
2022/11/29 05:52:24;;;;;;;;;;;;;;;;;;5014972;28;1920;-45
2022/11/29 05:54:57;;;;;;;;;;;;;;;;;;5014562;28;2003;-43
2022/11/29 05:57:30;;;;;;;;;;;;;;;;;;5014568;28;1909;-47
2022/11/29 05:59:57;;;;;;;;;;;;;;;;;;4998792;28;2036;-43
2022/11/29 06:02:24;;;;;;;;;;;;;;;;;;4994638;28;1867;-45
2022/11/29 06:04:58;;;;;;;;;;;;;;;;;;5009412;28;2023;-43
2022/11/29 06:07:33;;;;;;;;;;;;;;;;;;4994509;28;1957;-47
2022/11/29 06:10:05;;;;;;;;;;;;;;;;;;4994747;28;1960;-47
2022/11/29 06:12:36;;;;;;;;;;;;;;;;;;4994538;28;1949;-44
2022/11/29 06:15:18;;;;;;;;;;;;;;;;;;4994683;28;1971;-45
2022/11/29 06:17:47;;;;;;;;;;;;;;;;;;4997337;28;1944;-45
2022/11/29 06:20:14;;;;;;;;;;;;;;;;;;5014110;28;1948;-48
2022/11/29 06:23:11;;;;;;;;;;;;;;;;;;5014212;28;1855;-47
2022/11/29 06:25:57;;;;;;;;;;;;;;;;;;5013858;28;1980;-48
2022/11/29 06:28:29;;;;;;;;;;;;;;;;;;5013917;28;1766;-46
2022/11/29 06:31:15;;;;;;;;;;;;;;;;;;5013915;28;1892;-45
2022/11/29 06:33:48;;;;;;;;;;;;;;;;;;5014143;28;2028;-49
2022/11/29 06:36:24;;;;;;;;;;;;;;;;;;5013763;28;1505;-46
2022/11/29 06:38:51;;;;;;;;;;;;;;;;;;5013847;28;2123;-45
2022/11/29 06:41:21;;;;;;;;;;;;;;;;;;5013818;28;1795;-45
2022/11/29 06:43:48;;;;;;;;;;;;;;;;;;5013105;28;2075;-47
2022/11/29 06:46:24;;;;;;;;;;;;;;;;;;5013457;28;2132;-45
2022/11/29 06:48:56;;;;;;;;;;;;;;;;;;5013534;28;1989;-46
2022/11/29 06:51:34;;;;;;;;;;;;;;;;;;5013281;28;2031;-41
2022/11/29 06:54:01;;;;;;;;;;;;;;;;;;5013442;28;2040;-41
2022/11/29 06:56:59;;;;;;;;;;;;;;;;;;5013219;28;1796;-40
2022/11/29 06:59:45;;;;;;;;;;;;;;;;;;4992692;28;2370;-45
2022/11/29 07:02:15;;;;;;;;;;;;;;;;;;4993461;28;1847;-44
2022/11/29 07:04:48;;;;;;;;;;;;;;;;;;4993502;28;2110;-43
2022/11/29 07:07:19;;;;;;;;;;;;;;;;;;4992973;28;1981;-44
2022/11/29 07:09:49;;;;;;;;;;;;;;;;;;4993447;28;1977;-47
2022/11/29 07:12:17;;;;;;;;;;;;;;;;;;4993672;28;2001;-43
2022/11/29 07:14:44;;;;;;;;;;;;;;;;;;4992835;28;1964;-42
2022/11/29 07:17:30;;;;;;;;;;;;;;;;;;4993816;28;1971;-44
2022/11/29 07:20:03;;;;;;;;;;;;;;;;;;4973898;28;2042;-43
2022/11/29 07:22:50;;;;;;;;;;;;;;;;;;4973988;28;1962;-45
2022/11/29 07:25:24;;;;;;;;;;;;;;;;;;4973412;28;1934;-45
2022/11/29 07:27:58;;;;;;;;;;;;;;;;;;4973753;28;2089;-43
2022/11/29 07:30:29;;;;;;;;;;;;;;;;;;4973783;28;2181;-45
2022/11/29 07:32:56;;;;;;;;;;;;;;;;;;4973732;28;1993;-44
2022/11/29 07:35:44;;;;;;;;;;;;;;;;;;4973342;28;2030;-46
2022/11/29 07:38:14;;;;;;;;;;;;;;;;;;4973603;28;1819;-43
2022/11/29 07:40:46;;;;;;;;;;;;;;;;;;4973701;28;1877;-45
2022/11/29 07:43:14;;;;;;;;;;;;;;;;;;4973566;28;1958;-46
2022/11/29 07:45:41;;;;;;;;;;;;;;;;;;4973437;28;2028;-44
2022/11/29 07:48:10;;;;;;;;;;;;;;;;;;4973406;28;1849;-46
2022/11/29 07:50:37;;;;;;;;;;;;;;;;;;4973351;28;1810;-44
2022/11/29 07:53:04;;;;;;;;;;;;;;;;;;4987331;28;1974;-45
2022/11/29 07:55:33;;;;;;;;;;;;;;;;;;4986215;28;2108;-45
2022/11/29 07:58:00;;;;;;;;;;;;;;;;;;4992634;28;1966;-45
2022/11/29 08:00:28;;;;;;;;;;;;;;;;;;4992358;28;1930;-44
2022/11/29 08:02:55;;;;;;;;;;;;;;;;;;4992009;28;2067;-44
2022/11/29 08:05:22;;;;;;;;;;;;;;;;;;5011024;28;2006;-45
2022/11/29 08:07:50;;;;;;;;;;;;;;;;;;5011934;28;1794;-47
2022/11/29 08:10:17;;;;;;;;;;;;;;;;;;5011722;28;1631;-49
2022/11/29 08:12:49;;;;;;;;;;;;;;;;;;5011615;28;2120;-46
2022/11/29 08:15:19;;;;;;;;;;;;;;;;;;5011615;28;1882;-44
2022/11/29 08:17:47;;;;;;;;;;;;;;;;;;5008495;28;2157;-48
2022/11/29 08:20:15;;;;;;;;;;;;;;;;;;4992073;28;2124;-44
2022/11/29 08:22:42;;;;;;;;;;;;;;;;;;4992279;28;2044;-47
2022/11/29 08:25:10;;;;;;;;;;;;;;;;;;4991831;28;1907;-47
2022/11/29 08:27:40;;;;;;;;;;;;;;;;;;4991425;28;1975;-45
2022/11/29 08:30:08;;;;;;;;;;;;;;;;;;4991956;28;1886;-46
2022/11/29 08:32:35;;;;;;;;;;;;;;;;;;4991552;28;2002;-45
2022/11/29 08:35:02;;;;;;;;;;;;;;;;;;4991152;28;1816;-44
2022/11/29 08:37:30;;;;;;;;;;;;;;;;;;4991969;28;1929;-43
2022/11/29 08:39:58;;;;;;;;;;;;;;;;;;4991494;28;1907;-49
2022/11/29 08:42:25;;;;;;;;;;;;;;;;;;4991764;28;2146;-43
2022/11/29 08:44:53;;;;;;;;;;;;;;;;;;4991626;28;1793;-44
2022/11/29 08:47:35;;;;;;;;;;;;;;;;;;4991495;28;1926;-47
2022/11/29 08:50:14;;;;;;;;;;;;;;;;;;4991855;28;1968;-47
2022/11/29 08:55:38;;;;;;;;;;;;;;;;;;4991792;28;1973;-55
2022/11/29 08:58:07;;;;;;;;;;;;;;;;;;4991855;28;1948;-47
2022/11/29 09:00:34;;;;;;;;;;;;;;;;;;4991682;28;2007;-43
2022/11/29 09:05:50;;;;;;;;;;;;;;;;;;4999811;28;2079;-44
2022/11/29 09:08:17;;;;;;;;;;;;;;;;;;4991608;28;2024;-45
2022/11/29 09:10:44;;;;;;;;;;;;;;;;;;5006201;28;2291;-44
2022/11/29 09:13:12;;;;;;;;;;;;;;;;;;4991982;28;1946;-41
2022/11/29 09:15:41;;;;;;;;;;;;;;;;;;4994768;28;2019;-45
2022/11/29 09:18:08;;;;;;;;;;;;;;;;;;5001313;28;1934;-44
2022/11/29 09:20:35;;;;;;;;;;;;;;;;;;5011474;28;1971;-44
2022/11/29 09:23:02;;;;;;;;;;;;;;;;;;5011495;28;1969;-40
2022/11/29 09:25:30;;;;;;;;;;;;;;;;;;5030045;28;2069;-46
2022/11/29 09:28:00;;;;;;;;;;;;;;;;;;5014807;28;1961;-44
2022/11/29 09:30:30;;;;;;;;;;;;;;;;;;5014773;28;2070;-48
2022/11/29 09:33:02;;;;;;;;;;;;;;;;;;5014924;28;1777;-47
2022/11/29 09:35:31;;;;;;;;;;;;;;;;;;5014495;28;2084;-45
2022/11/29 09:37:58;;;;;;;;;;;;;;;;;;5014827;28;1770;-44
2022/11/29 09:40:52;;;;;;;;;;;;;;;;;;5013904;28;1974;-44
2022/11/29 09:43:45;;;;;;;;;;;;;;;;;;5013514;28;1869;-44
2022/11/29 09:46:35;;;;;;;;;;;;;;;;;;5003007;28;1993;-40
2022/11/29 09:49:15;;;;;;;;;;;;;;;;;;4991591;28;2020;-45
2022/11/29 09:51:52;;;;;;;;;;;;;;;;;;4994970;28;1930;-43
2022/11/29 09:54:34;;;;;;;;;;;;;;;;;;4994780;28;1963;-47
2022/11/29 09:57:03;;;;;;;;;;;;;;;;;;4994306;28;1960;-45
2022/11/29 09:59:41;;;;;;;;;;;;;;;;;;4993656;28;2096;-44
2022/11/29 10:02:27;;;;;;;;;;;;;;;;;;4993812;28;1862;-44
2022/11/29 10:05:04;;;;;;;;;;;;;;;;;;4994262;28;2279;-44
2022/11/29 10:07:34;;;;;;;;;;;;;;;;;;4994276;28;2077;-47
2022/11/29 10:10:07;;;;;;;;;;;;;;;;;;4994334;28;1904;-43
2022/11/29 10:12:45;;;;;;;;;;;;;;;;;;4994305;28;2024;-46
2022/11/29 10:15:12;;;;;;;;;;;;;;;;;;4994515;28;2007;-46
2022/11/29 10:17:46;;;;;;;;;;;;;;;;;;4996501;28;1884;-50
2022/11/29 10:20:16;;;;;;;;;;;;;;;;;;5013403;28;1982;-47
2022/11/29 10:22:53;;;;;;;;;;;;;;;;;;5014144;28;2074;-44
2022/11/29 10:25:23;;;;;;;;;;;;;;;;;;5013086;28;2019;-45
2022/11/29 10:27:50;;;;;;;;;;;;;;;;;;5013805;28;2077;-46
2022/11/29 10:30:17;;;;;;;;;;;;;;;;;;5013342;28;1891;-45
2022/11/29 10:32:46;;;;;;;;;;;;;;;;;;5013221;28;1980;-44
2022/11/29 10:35:14;;;;;;;;;;;;;;;;;;5013660;28;2093;-46
2022/11/29 10:37:41;;;;;;;;;;;;;;;;;;5013844;28;1936;-48
2022/11/29 10:40:27;;;;;;;;;;;;;;;;;;5013116;28;2019;-43
2022/11/29 10:42:55;;;;;;;;;;;;;;;;;;5013326;28;1881;-42
2022/11/29 10:45:25;;;;;;;;;;;;;;;;;;5010563;28;2045;-42
2022/11/29 10:48:11;;;;;;;;;;;;;;;;;;4993979;28;1973;-43
2022/11/29 10:50:42;;;;;;;;;;;;;;;;;;4993295;28;2037;-43
2022/11/29 10:53:11;;;;;;;;;;;;;;;;;;4993843;28;1629;-47
2022/11/29 10:55:45;;;;;;;;;;;;;;;;;;4993205;28;1961;-45
2022/11/29 10:58:18;;;;;;;;;;;;;;;;;;4993836;28;1870;-44
2022/11/29 11:00:52;;;;;;;;;;;;;;;;;;4992901;28;2317;-48
2022/11/29 11:03:33;;;;;;;;;;;;;;;;;;4993667;28;2083;-48
2022/11/29 11:06:07;;;;;;;;;;;;;;;;;;4992019;28;1971;-47
2022/11/29 11:08:34;;;;;;;;;;;;;;;;;;4993369;28;1957;-46
2022/11/29 11:11:03;;;;;;;;;;;;;;;;;;4992509;28;2039;-45
2022/11/29 11:13:31;;;;;;;;;;;;;;;;;;4993061;28;2063;-45
2022/11/29 11:16:01;;;;;;;;;;;;;;;;;;5004217;28;2085;-43
2022/11/29 11:18:34;;;;;;;;;;;;;;;;;;5003584;28;1992;-43
2022/11/29 11:21:03;;;;;;;;;;;;;;;;;;4992672;28;1861;-42
2022/11/29 11:23:33;;;;;;;;;;;;;;;;;;5012376;28;1900;-42
2022/11/29 11:26:05;;;;;;;;;;;;;;;;;;5012258;28;1910;-47
2022/11/29 11:28:44;;;;;;;;;;;;;;;;;;4994563;28;2089;-46
2022/11/29 11:31:11;;;;;;;;;;;;;;;;;;4973310;28;1787;-45
2022/11/29 11:33:40;;;;;;;;;;;;;;;;;;4973491;28;1969;-44
2022/11/29 11:36:07;;;;;;;;;;;;;;;;;;4973761;28;1932;-47
2022/11/29 11:38:36;;;;;;;;;;;;;;;;;;4972678;28;2009;-47
2022/11/29 11:41:16;;;;;;;;;;;;;;;;;;4987726;28;2269;-46
2022/11/29 11:43:50;;;;;;;;;;;;;;;;;;4973537;28;2250;-50
2022/11/29 11:46:19;;;;;;;;;;;;;;;;;;5006795;28;2158;-43
2022/11/29 11:48:47;;;;;;;;;;;;;;;;;;5012171;28;2085;-44
2022/11/29 11:51:25;;;;;;;;;;;;;;;;;;5012309;28;2043;-46
2022/11/29 11:53:55;;;;;;;;;;;;;;;;;;5012085;28;1842;-46
2022/11/29 11:56:22;;;;;;;;;;;;;;;;;;5012187;28;2049;-43
2022/11/29 11:58:51;;;;;;;;;;;;;;;;;;5011936;28;1988;-43
2022/11/29 12:01:29;;;;;;;;;;;;;;;;;;5011487;28;2049;-44
2022/11/29 12:03:56;;;;;;;;;;;;;;;;;;5011863;28;1951;-46
2022/11/29 12:06:26;;;;;;;;;;;;;;;;;;5011477;28;2111;-46
2022/11/29 12:08:56;;;;;;;;;;;;;;;;;;5011713;28;1946;-47
2022/11/29 12:11:24;;;;;;;;;;;;;;;;;;5001843;28;1839;-44
2022/11/29 12:13:52;;;;;;;;;;;;;;;;;;4992330;28;1996;-45
2022/11/29 12:16:26;;;;;;;;;;;;;;;;;;4992408;28;2263;-44
2022/11/29 12:19:06;;;;;;;;;;;;;;;;;;5004322;28;1989;-46
2022/11/29 12:21:36;;;;;;;;;;;;;;;;;;5011861;28;1964;-49
2022/11/29 12:24:29;;;;;;;;;;;;;;;;;;5011433;28;2016;-45
2022/11/29 12:26:59;;;;;;;;;;;;;;;;;;5010695;28;2034;-47
2022/11/29 12:29:27;;;;;;;;;;;;;;;;;;5011495;28;1899;-46
2022/11/29 12:31:57;;;;;;;;;;;;;;;;;;5011590;28;1974;-45
2022/11/29 12:34:39;;;;;;;;;;;;;;;;;;5011793;28;2170;-45
2022/11/29 12:37:20;;;;;;;;;;;;;;;;;;5011821;28;2001;-46
2022/11/29 12:40:00;;;;;;;;;;;;;;;;;;5011667;28;2130;-44
2022/11/29 12:42:46;;;;;;;;;;;;;;;;;;5000007;28;2137;-46
2022/11/29 12:45:16;;;;;;;;;;;;;;;;;;4991679;28;2089;-45
2022/11/29 12:47:49;;;;;;;;;;;;;;;;;;5006855;28;2098;-45
2022/11/29 12:50:24;;;;;;;;;;;;;;;;;;4991464;28;2054;-46
2022/11/29 12:53:10;;;;;;;;;;;;;;;;;;4991563;28;1985;-45
2022/11/29 12:55:46;;;;;;;;;;;;;;;;;;4991743;28;1986;-44
2022/11/29 12:58:21;;;;;;;;;;;;;;;;;;4991920;28;2021;-46
2022/11/29 13:00:51;;;;;;;;;;;;;;;;;;4991889;28;1989;-48
2022/11/29 13:03:26;;;;;;;;;;;;;;;;;;4991163;28;1967;-44
2022/11/29 13:06:16;;;;;;;;;;;;;;;;;;4991607;28;2093;-46
2022/11/29 13:08:49;;;;;;;;;;;;;;;;;;4991435;28;1977;-45
2022/11/29 13:11:32;;;;;;;;;;;;;;;;;;4991411;28;1894;-44
2022/11/29 13:14:11;;;;;;;;;;;;;;;;;;4991345;28;1979;-47
2022/11/29 13:17:02;;;;;;;;;;;;;;;;;;5006584;28;2020;-45
2022/11/29 13:19:36;;;;;;;;;;;;;;;;;;5008056;28;1985;-47
2022/11/29 13:22:19;;;;;;;;;;;;;;;;;;5010884;28;1408;-43
2022/11/29 13:25:09;;;;;;;;;;;;;;;;;;5009291;28;1958;-46
2022/11/29 13:27:39;;;;;;;;;;;;;;;;;;5003955;28;1983;-47
2022/11/29 13:30:06;;;;;;;;;;;;;;;;;;5002966;28;2001;-41
2022/11/29 13:32:46;;;;;;;;;;;;;;;;;;5010634;28;2007;-45
2022/11/29 13:35:21;;;;;;;;;;;;;;;;;;5010852;28;2039;-47
2022/11/29 13:37:54;;;;;;;;;;;;;;;;;;5010469;28;2064;-44
2022/11/29 13:40:21;;;;;;;;;;;;;;;;;;5001654;28;6697;-46
2022/11/29 13:42:54;;;;;;;;;;;;;;;;;;4976985;28;2886;-45
2022/11/29 13:45:35;;;;;;;;;;;;;;;;;;4974083;28;1995;-45
2022/11/29 13:48:19;;;;;;;;;;;;;;;;;;4971371;28;1991;-48
2022/11/29 13:50:50;;;;;;;;;;;;;;;;;;4971150;28;1785;-45
2022/11/29 13:53:20;;;;;;;;;;;;;;;;;;4970298;28;1980;-46
2022/11/29 13:55:49;;;;;;;;;;;;;;;;;;4971540;28;1892;-43
2022/11/29 13:58:16;;;;;;;;;;;;;;;;;;4981512;28;2069;-45
2022/11/29 14:00:44;;;;;;;;;;;;;;;;;;4992465;28;1978;-45
2022/11/29 14:03:17;;;;;;;;;;;;;;;;;;4993929;28;2140;-47
2022/11/29 14:05:45;;;;;;;;;;;;;;;;;;4977638;28;2231;-44
2022/11/29 14:08:30;;;;;;;;;;;;;;;;;;4972450;28;2649;-44
2022/11/29 14:11:18;;;;;;;;;;;;;;;;;;4973824;28;2664;-47
2022/11/29 14:13:59;;;;;;;;;;;;;;;;;;4973380;28;2005;-49
2022/11/29 14:16:47;;;;;;;;;;;;;;;;;;4974990;28;1862;-46
2022/11/29 14:19:30;;;;;;;;;;;;;;;;;;4989052;28;1947;-45
2022/11/29 14:22:05;;;;;;;;;;;;;;;;;;4992211;28;1957;-48
2022/11/29 14:24:35;;;;;;;;;;;;;;;;;;4993192;28;1378;-46
2022/11/29 14:27:05;;;;;;;;;;;;;;;;;;4993523;28;2059;-46
2022/11/29 14:29:52;;;;;;;;;;;;;;;;;;4993977;28;2188;-45
2022/11/29 14:32:22;;;;;;;;;;;;;;;;;;4991878;28;2045;-44
2022/11/29 14:35:08;;;;;;;;;;;;;;;;;;4986970;28;1921;-46
2022/11/29 14:37:41;;;;;;;;;;;;;;;;;;4993569;28;1608;-45
2022/11/29 14:40:18;;;;;;;;;;;;;;;;;;4993060;28;1607;-50
2022/11/29 14:42:47;;;;;;;;;;;;;;;;;;4985914;28;1577;-45
2022/11/29 14:45:22;;;;;;;;;;;;;;;;;;4993200;28;1542;-51
2022/11/29 14:47:49;;;;;;;;;;;;;;;;;;4992901;28;1985;-47
2022/11/29 14:50:42;;;;;;;;;;;;;;;;;;4993506;28;2288;-46
2022/11/29 14:53:31;;;;;;;;;;;;;;;;;;4990913;28;1697;-46
2022/11/29 14:56:17;;;;;;;;;;;;;;;;;;4988037;28;1596;-46
2022/11/29 14:58:44;;;;;;;;;;;;;;;;;;4979047;28;4102;-46
2022/11/29 15:01:13;;;;;;;;;;;;;;;;;;4974127;28;970;-47
2022/11/29 15:03:46;;;;;;;;;;;;;;;;;;4963305;28;5025;-44
2022/11/29 15:06:22;;;;;;;;;;;;;;;;;;4973242;28;1021;-45
2022/11/29 15:08:58;;;;;;;;;;;;;;;;;;4970872;28;5545;-43
2022/11/29 15:11:30;;;;;;;;;;;;;;;;;;4973306;28;840;-47
2022/11/29 15:14:05;;;;;;;;;;;;;;;;;;4968750;28;4420;-45
2022/11/29 15:16:33;;;;;;;;;;;;;;;;;;4987513;28;1955;-47
2022/11/29 15:19:06;;;;;;;;;;;;;;;;;;4959768;28;2061;-46
2022/11/29 15:21:48;;;;;;;;;;;;;;;;;;4953297;28;1921;-48
2022/11/29 15:24:16;;;;;;;;;;;;;;;;;;4953134;28;1911;-47
2022/11/29 15:26:53;;;;;;;;;;;;;;;;;;4953420;28;1933;-46
2022/11/29 15:29:21;;;;;;;;;;;;;;;;;;4953335;28;2001;-47
2022/11/29 15:31:50;;;;;;;;;;;;;;;;;;4954283;28;3084;-44
2022/11/29 15:34:27;;;;;;;;;;;;;;;;;;4954199;28;1886;-47
2022/11/29 15:36:54;;;;;;;;;;;;;;;;;;4954085;28;2034;-44
2022/11/29 15:39:35;;;;;;;;;;;;;;;;;;4954246;28;3240;-47
2022/11/29 15:42:07;;;;;;;;;;;;;;;;;;4954311;28;2007;-45
2022/11/29 15:44:34;;;;;;;;;;;;;;;;;;4954057;28;1974;-48
2022/11/29 15:47:20;;;;;;;;;;;;;;;;;;4953243;28;1982;-45
2022/11/29 15:49:52;;;;;;;;;;;;;;;;;;4953729;28;1908;-45
2022/11/29 15:52:30;;;;;;;;;;;;;;;;;;4968434;28;2178;-46
2022/11/29 15:54:59;;;;;;;;;;;;;;;;;;4953970;28;2001;-45
2022/11/29 15:57:29;;;;;;;;;;;;;;;;;;4953519;28;2144;-47
2022/11/29 16:00:04;;;;;;;;;;;;;;;;;;4953948;28;2586;-47
2022/11/29 16:02:33;;;;;;;;;;;;;;;;;;4954147;28;1868;-48
2022/11/29 16:05:07;;;;;;;;;;;;;;;;;;4953737;28;2020;-46
2022/11/29 16:07:36;;;;;;;;;;;;;;;;;;4953792;28;1973;-46
2022/11/29 16:10:13;;;;;;;;;;;;;;;;;;4953630;28;2236;-45
2022/11/29 16:12:54;;;;;;;;;;;;;;;;;;4953611;28;2094;-47
2022/11/29 16:15:25;;;;;;;;;;;;;;;;;;4953783;28;2248;-45
2022/11/29 16:17:52;;;;;;;;;;;;;;;;;;4957128;28;2023;-48
2022/11/29 16:20:23;;;;;;;;;;;;;;;;;;4972471;28;1742;-45
2022/11/29 16:23:03;;;;;;;;;;;;;;;;;;4972424;28;1880;-44
2022/11/29 16:25:31;;;;;;;;;;;;;;;;;;4972600;28;1791;-46
2022/11/29 16:28:04;;;;;;;;;;;;;;;;;;4972317;28;2090;-43
2022/11/29 16:30:31;;;;;;;;;;;;;;;;;;4972715;28;2024;-44
2022/11/29 16:33:00;;;;;;;;;;;;;;;;;;4972408;28;2127;-45
2022/11/29 16:35:28;;;;;;;;;;;;;;;;;;4972583;28;1972;-48
2022/11/29 16:37:55;;;;;;;;;;;;;;;;;;4972593;28;1985;-47
2022/11/29 16:40:25;;;;;;;;;;;;;;;;;;4972429;28;4873;-45
2022/11/29 16:43:11;;;;;;;;;;;;;;;;;;4972495;28;1893;-48
2022/11/29 16:45:40;;;;;;;;;;;;;;;;;;4972394;28;1887;-48
2022/11/29 16:48:26;;;;;;;;;;;;;;;;;;4972038;28;2106;-48
2022/11/29 16:51:13;;;;;;;;;;;;;;;;;;4987510;28;2099;-45
2022/11/29 16:53:41;;;;;;;;;;;;;;;;;;4960303;28;2165;-44
2022/11/29 16:56:12;;;;;;;;;;;;;;;;;;4960902;28;1933;-47
2022/11/29 16:58:40;;;;;;;;;;;;;;;;;;4952470;28;2026;-46
2022/11/29 17:01:28;;;;;;;;;;;;;;;;;;4953026;28;1818;-45
2022/11/29 17:03:58;;;;;;;;;;;;;;;;;;4951681;28;1960;-46
2022/11/29 17:06:25;;;;;;;;;;;;;;;;;;4952714;28;1850;-45
2022/11/29 17:08:56;;;;;;;;;;;;;;;;;;4952901;28;1984;-46
2022/11/29 17:11:23;;;;;;;;;;;;;;;;;;4952910;29;2060;-46
2022/11/29 17:13:51;;;;;;;;;;;;;;;;;;4953091;28;2037;-47
2022/11/29 17:16:20;;;;;;;;;;;;;;;;;;4952975;28;2097;-47
2022/11/29 17:18:47;;;;;;;;;;;;;;;;;;4964007;28;1792;-45
2022/11/29 17:21:18;;;;;;;;;;;;;;;;;;4972211;28;1881;-46
2022/11/29 17:23:45;;;;;;;;;;;;;;;;;;4972311;28;1934;-48
2022/11/29 17:26:14;;;;;;;;;;;;;;;;;;4972343;28;2062;-47
2022/11/29 17:28:43;;;;;;;;;;;;;;;;;;4972040;28;2156;-45
2022/11/29 17:31:12;;;;;;;;;;;;;;;;;;4971975;28;1859;-43
2022/11/29 17:33:41;;;;;;;;;;;;;;;;;;4971842;28;2096;-43
2022/11/29 17:36:09;;;;;;;;;;;;;;;;;;4973936;28;2067;-45
2022/11/29 17:38:36;;;;;;;;;;;;;;;;;;4975826;28;2035;-47
2022/11/29 17:41:07;;;;;;;;;;;;;;;;;;4975531;28;1917;-49
2022/11/29 17:43:35;;;;;;;;;;;;;;;;;;4975572;28;1789;-41
2022/11/29 17:46:12;;;;;;;;;;;;;;;;;;4975989;28;2113;-44
2022/11/29 17:48:41;;;;;;;;;;;;;;;;;;4975519;28;2030;-46
2022/11/29 17:51:08;;;;;;;;;;;;;;;;;;4975268;28;2171;-47
2022/11/29 17:53:57;;;;;;;;;;;;;;;;;;4975507;28;1969;-48
2022/11/29 17:56:24;;;;;;;;;;;;;;;;;;4975370;28;1844;-45